Accueil
METAR-TAF:

METAR-TAF

Aéroports :

Rheine, Allemagne

latitude: 52-18N, longitude: 007-23E, altitude: 40 m

Observation

Le bulletin a été fait il y a 47 minutes, à 11:20 UTC
Vent 9 kt de est
Température 20°C
Humidité 53%
Pression 1010 hPa

METAR: ETHE 271120Z AUTO 08009KT //// // ////// 20/10 Q1010 ///

Heure: 14:07 (12:07 UTC)

Prévision

Le bulletin a été fait il y a 1 heure et 52 minutes, à 10:15 UTC
Prévision valable du 27 à 11 UTC au 27 à 20 UTC
Vent 8 kt de est/nord-est
Visibilité 10 km ou plus
Nuages épars à une hauteur de 10000 ft
Nuages fragmentés à une hauteur de 18000 ft
Evoluant progressivement
du 27 à 14 UTC au 27 à 17 UTC
Vent 8 kt de est/nord-est
Visibilité 10 km ou plus
Nuages épars à une hauteur de 4000 ft
Nuages fragmentés à une hauteur de 8000 ft
pluie faible

TAF: ETHE 271015Z 2711/2720 07008KT 9999 NSW SCT100 BKN180 BECMG 2714/2717 07008KT 9999 -RA SCT040 BKN080

Observations et prévisions météorologiques de plus de 4000 aéroports (messages METAR et TAF).

Les stations disponibles sont représentées par des disques jaunes et rouges sur la carte.

Passer la souris dessus pour voir le nom de la station.

Cliquer dessus pour voir les observations et prévisions météorologiques.

Pour changer de carte: cliquez sur les boutons verts avec une croix noire pour zoomer, sur le bouton vert avec un tiret pour effectuer un zoom arrière, ou sur les flèches vertes pour les cartes adjacentes.


METAR-TAF: